sensor_id;sensor_type;location;lat;lon;timestamp;P1;durP1;ratioP1;P2;durP2;ratioP2
41043;SDS011;51680;49.806;18.774;2023-03-23T00:01:56;11.90;;;6.13;;
41043;SDS011;51680;49.806;18.774;2023-03-23T00:04:59;7.18;;;4.28;;
41043;SDS011;51680;49.806;18.774;2023-03-23T00:08:03;10.75;;;5.75;;
41043;SDS011;51680;49.806;18.774;2023-03-23T00:11:05;12.18;;;5.25;;
41043;SDS011;51680;49.806;18.774;2023-03-23T00:14:08;10.43;;;5.22;;
41043;SDS011;51680;49.806;18.774;2023-03-23T00:17:13;9.85;;;5.50;;
41043;SDS011;51680;49.806;18.774;2023-03-23T00:20:16;10.30;;;6.05;;
41043;SDS011;51680;49.806;18.774;2023-03-23T00:23:18;11.10;;;5.00;;
41043;SDS011;51680;49.806;18.774;2023-03-23T00:26:22;11.18;;;5.95;;
41043;SDS011;51680;49.806;18.774;2023-03-23T00:29:28;11.85;;;5.97;;
41043;SDS011;51680;49.806;18.774;2023-03-23T00:32:32;8.75;;;5.20;;
41043;SDS011;51680;49.806;18.774;2023-03-23T00:38:39;9.60;;;5.93;;
41043;SDS011;51680;49.806;18.774;2023-03-23T00:42:02;7.40;;;4.40;;
41043;SDS011;51680;49.806;18.774;2023-03-23T00:45:05;9.95;;;5.45;;
41043;SDS011;51680;49.806;18.774;2023-03-23T00:48:10;9.85;;;5.30;;
41043;SDS011;51680;49.806;18.774;2023-03-23T00:51:15;12.95;;;5.53;;
41043;SDS011;51680;49.806;18.774;2023-03-23T00:54:17;8.55;;;5.18;;
41043;SDS011;51680;49.806;18.774;2023-03-23T00:57:19;8.63;;;5.28;;
41043;SDS011;51680;49.806;18.774;2023-03-23T01:00:24;9.45;;;5.43;;
41043;SDS011;51680;49.806;18.774;2023-03-23T01:03:26;8.82;;;4.43;;
41043;SDS011;51680;49.806;18.774;2023-03-23T01:06:30;10.05;;;4.97;;
41043;SDS011;51680;49.806;18.774;2023-03-23T01:09:36;8.65;;;5.32;;
41043;SDS011;51680;49.806;18.774;2023-03-23T01:12:40;7.53;;;4.72;;
41043;SDS011;51680;49.806;18.774;2023-03-23T01:15:41;10.20;;;5.28;;
41043;SDS011;51680;49.806;18.774;2023-03-23T01:18:43;9.23;;;4.50;;
41043;SDS011;51680;49.806;18.774;2023-03-23T01:21:47;8.23;;;5.30;;
41043;SDS011;51680;49.806;18.774;2023-03-23T01:24:48;7.30;;;4.97;;
41043;SDS011;51680;49.806;18.774;2023-03-23T01:27:50;8.63;;;5.20;;
41043;SDS011;51680;49.806;18.774;2023-03-23T01:30:52;8.40;;;5.40;;
41043;SDS011;51680;49.806;18.774;2023-03-23T01:33:54;7.50;;;5.05;;
41043;SDS011;51680;49.806;18.774;2023-03-23T01:36:58;9.93;;;5.80;;
41043;SDS011;51680;49.806;18.774;2023-03-23T01:40:00;9.18;;;5.43;;
41043;SDS011;51680;49.806;18.774;2023-03-23T01:43:08;11.77;;;5.40;;
41043;SDS011;51680;49.806;18.774;2023-03-23T01:46:16;10.52;;;5.20;;
41043;SDS011;51680;49.806;18.774;2023-03-23T01:49:19;10.00;;;5.20;;
41043;SDS011;51680;49.806;18.774;2023-03-23T01:52:26;7.68;;;5.10;;
41043;SDS011;51680;49.806;18.774;2023-03-23T01:55:35;8.07;;;5.35;;
41043;SDS011;51680;49.806;18.774;2023-03-23T01:58:41;9.85;;;5.57;;
41043;SDS011;51680;49.806;18.774;2023-03-23T02:01:44;16.55;;;5.32;;
41043;SDS011;51680;49.806;18.774;2023-03-23T02:04:47;9.60;;;5.55;;
41043;SDS011;51680;49.806;18.774;2023-03-23T02:07:50;9.65;;;5.47;;
41043;SDS011;51680;49.806;18.774;2023-03-23T02:10:53;7.25;;;4.72;;
41043;SDS011;51680;49.806;18.774;2023-03-23T02:13:55;8.30;;;4.60;;
41043;SDS011;51680;49.806;18.774;2023-03-23T02:16:59;9.40;;;5.03;;
41043;SDS011;51680;49.806;18.774;2023-03-23T02:20:08;8.02;;;5.20;;
41043;SDS011;51680;49.806;18.774;2023-03-23T02:23:23;10.98;;;5.10;;
41043;SDS011;51680;49.806;18.774;2023-03-23T02:26:43;9.65;;;4.97;;
41043;SDS011;51680;49.806;18.774;2023-03-23T02:29:54;10.65;;;5.20;;
41043;SDS011;51680;49.806;18.774;2023-03-23T02:33:28;8.25;;;4.85;;
41043;SDS011;51680;49.806;18.774;2023-03-23T02:36:37;10.88;;;5.35;;
41043;SDS011;51680;49.806;18.774;2023-03-23T02:39:44;7.93;;;5.25;;
41043;SDS011;51680;49.806;18.774;2023-03-23T02:42:49;7.30;;;4.93;;
41043;SDS011;51680;49.806;18.774;2023-03-23T02:45:54;7.65;;;4.65;;
41043;SDS011;51680;49.806;18.774;2023-03-23T02:49:01;10.18;;;5.35;;
41043;SDS011;51680;49.806;18.774;2023-03-23T02:52:24;10.02;;;5.00;;
41043;SDS011;51680;49.806;18.774;2023-03-23T02:55:29;5.45;;;2.92;;
41043;SDS011;51680;49.806;18.774;2023-03-23T02:58:37;9.30;;;4.45;;
41043;SDS011;51680;49.806;18.774;2023-03-23T03:01:46;7.68;;;4.45;;
41043;SDS011;51680;49.806;18.774;2023-03-23T03:04:53;10.68;;;4.78;;
41043;SDS011;51680;49.806;18.774;2023-03-23T03:08:06;10.00;;;4.85;;
41043;SDS011;51680;49.806;18.774;2023-03-23T03:11:19;7.97;;;4.95;;
41043;SDS011;51680;49.806;18.774;2023-03-23T03:14:23;7.57;;;5.07;;
41043;SDS011;51680;49.806;18.774;2023-03-23T03:17:30;8.20;;;5.43;;
41043;SDS011;51680;49.806;18.774;2023-03-23T03:20:35;8.70;;;4.60;;
41043;SDS011;51680;49.806;18.774;2023-03-23T03:23:58;10.68;;;5.90;;
41043;SDS011;51680;49.806;18.774;2023-03-23T03:27:03;7.93;;;4.85;;
41043;SDS011;51680;49.806;18.774;2023-03-23T03:30:16;9.60;;;4.57;;
41043;SDS011;51680;49.806;18.774;2023-03-23T03:33:21;8.82;;;5.03;;
41043;SDS011;51680;49.806;18.774;2023-03-23T03:36:28;9.48;;;5.07;;
41043;SDS011;51680;49.806;18.774;2023-03-23T03:39:36;11.65;;;5.07;;
41043;SDS011;51680;49.806;18.774;2023-03-23T03:42:38;9.02;;;5.30;;
41043;SDS011;51680;49.806;18.774;2023-03-23T03:45:42;11.15;;;4.80;;
41043;SDS011;51680;49.806;18.774;2023-03-23T03:48:45;9.77;;;4.77;;
41043;SDS011;51680;49.806;18.774;2023-03-23T03:51:48;7.45;;;4.35;;
41043;SDS011;51680;49.806;18.774;2023-03-23T03:54:56;10.88;;;4.82;;
41043;SDS011;51680;49.806;18.774;2023-03-23T03:57:57;8.80;;;5.20;;
41043;SDS011;51680;49.806;18.774;2023-03-23T04:01:00;10.55;;;4.80;;
41043;SDS011;51680;49.806;18.774;2023-03-23T04:04:06;8.77;;;5.03;;
41043;SDS011;51680;49.806;18.774;2023-03-23T04:07:11;9.13;;;3.05;;
41043;SDS011;51680;49.806;18.774;2023-03-23T04:13:18;8.48;;;4.55;;
41043;SDS011;51680;49.806;18.774;2023-03-23T04:16:39;10.18;;;4.63;;
41043;SDS011;51680;49.806;18.774;2023-03-23T04:19:42;9.13;;;4.50;;
41043;SDS011;51680;49.806;18.774;2023-03-23T04:22:46;9.95;;;5.22;;
41043;SDS011;51680;49.806;18.774;2023-03-23T04:25:50;7.78;;;4.78;;
41043;SDS011;51680;49.806;18.774;2023-03-23T04:28:53;8.65;;;4.90;;
41043;SDS011;51680;49.806;18.774;2023-03-23T04:35:24;8.25;;;4.53;;
41043;SDS011;51680;49.806;18.774;2023-03-23T04:38:41;10.50;;;4.70;;
41043;SDS011;51680;49.806;18.774;2023-03-23T04:41:50;9.35;;;4.50;;
41043;SDS011;51680;49.806;18.774;2023-03-23T04:45:17;7.18;;;4.40;;
41043;SDS011;51680;49.806;18.774;2023-03-23T04:48:24;7.93;;;4.53;;
41043;SDS011;51680;49.806;18.774;2023-03-23T04:51:36;14.18;;;4.80;;
41043;SDS011;51680;49.806;18.774;2023-03-23T04:54:57;7.75;;;4.45;;
41043;SDS011;51680;49.806;18.774;2023-03-23T04:58:01;9.88;;;5.15;;
41043;SDS011;51680;49.806;18.774;2023-03-23T05:01:10;7.78;;;4.60;;
41043;SDS011;51680;49.806;18.774;2023-03-23T05:04:20;9.60;;;5.05;;
41043;SDS011;51680;49.806;18.774;2023-03-23T05:07:41;7.15;;;4.35;;
41043;SDS011;51680;49.806;18.774;2023-03-23T05:10:50;6.18;;;4.32;;
41043;SDS011;51680;49.806;18.774;2023-03-23T05:13:54;8.60;;;4.40;;
41043;SDS011;51680;49.806;18.774;2023-03-23T05:16:57;6.88;;;4.15;;
41043;SDS011;51680;49.806;18.774;2023-03-23T05:20:00;7.53;;;4.07;;
41043;SDS011;51680;49.806;18.774;2023-03-23T05:23:16;8.90;;;3.78;;
41043;SDS011;51680;49.806;18.774;2023-03-23T05:26:23;6.85;;;4.55;;
41043;SDS011;51680;49.806;18.774;2023-03-23T05:29:28;7.18;;;4.13;;
41043;SDS011;51680;49.806;18.774;2023-03-23T05:32:34;14.40;;;3.90;;
41043;SDS011;51680;49.806;18.774;2023-03-23T05:35:53;8.55;;;4.00;;
41043;SDS011;51680;49.806;18.774;2023-03-23T05:39:02;7.32;;;4.03;;
41043;SDS011;51680;49.806;18.774;2023-03-23T05:42:24;8.98;;;4.07;;
41043;SDS011;51680;49.806;18.774;2023-03-23T05:45:37;9.77;;;3.90;;
41043;SDS011;51680;49.806;18.774;2023-03-23T05:48:40;8.00;;;3.80;;
41043;SDS011;51680;49.806;18.774;2023-03-23T05:51:47;7.35;;;3.97;;
41043;SDS011;51680;49.806;18.774;2023-03-23T05:54:50;9.60;;;3.63;;
41043;SDS011;51680;49.806;18.774;2023-03-23T05:57:56;9.43;;;4.57;;
41043;SDS011;51680;49.806;18.774;2023-03-23T06:01:05;8.15;;;4.53;;
41043;SDS011;51680;49.806;18.774;2023-03-23T06:04:07;8.30;;;3.85;;
41043;SDS011;51680;49.806;18.774;2023-03-23T06:07:23;6.75;;;4.00;;
41043;SDS011;51680;49.806;18.774;2023-03-23T06:10:33;6.47;;;3.70;;
41043;SDS011;51680;49.806;18.774;2023-03-23T06:13:39;8.85;;;4.18;;
41043;SDS011;51680;49.806;18.774;2023-03-23T06:16:43;8.52;;;3.53;;
41043;SDS011;51680;49.806;18.774;2023-03-23T06:19:48;9.02;;;4.13;;
41043;SDS011;51680;49.806;18.774;2023-03-23T06:22:51;10.20;;;4.45;;
41043;SDS011;51680;49.806;18.774;2023-03-23T06:26:13;5.85;;;3.40;;
41043;SDS011;51680;49.806;18.774;2023-03-23T06:29:21;7.40;;;3.40;;
41043;SDS011;51680;49.806;18.774;2023-03-23T06:32:41;4.80;;;3.67;;
41043;SDS011;51680;49.806;18.774;2023-03-23T06:35:47;8.73;;;3.85;;
41043;SDS011;51680;49.806;18.774;2023-03-23T06:39:06;8.30;;;3.90;;
41043;SDS011;51680;49.806;18.774;2023-03-23T06:42:34;8.98;;;3.75;;
41043;SDS011;51680;49.806;18.774;2023-03-23T06:46:03;9.32;;;3.90;;
41043;SDS011;51680;49.806;18.774;2023-03-23T06:49:14;6.90;;;3.78;;
41043;SDS011;51680;49.806;18.774;2023-03-23T06:52:24;6.30;;;3.78;;
41043;SDS011;51680;49.806;18.774;2023-03-23T06:55:27;6.60;;;4.00;;
41043;SDS011;51680;49.806;18.774;2023-03-23T06:58:29;7.03;;;3.72;;
41043;SDS011;51680;49.806;18.774;2023-03-23T07:01:33;7.63;;;4.20;;
41043;SDS011;51680;49.806;18.774;2023-03-23T07:04:36;7.63;;;3.78;;
41043;SDS011;51680;49.806;18.774;2023-03-23T07:07:43;7.28;;;4.07;;
41043;SDS011;51680;49.806;18.774;2023-03-23T07:10:58;7.70;;;4.10;;
41043;SDS011;51680;49.806;18.774;2023-03-23T07:17:06;8.13;;;4.32;;
41043;SDS011;51680;49.806;18.774;2023-03-23T07:20:13;7.47;;;3.95;;
41043;SDS011;51680;49.806;18.774;2023-03-23T07:23:16;5.53;;;3.10;;
41043;SDS011;51680;49.806;18.774;2023-03-23T07:26:31;7.03;;;3.50;;
41043;SDS011;51680;49.806;18.774;2023-03-23T07:29:51;12.55;;;3.90;;
41043;SDS011;51680;49.806;18.774;2023-03-23T07:32:59;4.60;;;2.97;;
41043;SDS011;51680;49.806;18.774;2023-03-23T07:36:05;6.78;;;3.30;;
41043;SDS011;51680;49.806;18.774;2023-03-23T07:39:09;6.93;;;3.30;;
41043;SDS011;51680;49.806;18.774;2023-03-23T07:42:18;4.90;;;2.63;;
41043;SDS011;51680;49.806;18.774;2023-03-23T07:49:05;5.75;;;2.78;;
41043;SDS011;51680;49.806;18.774;2023-03-23T07:52:15;5.25;;;2.90;;
41043;SDS011;51680;49.806;18.774;2023-03-23T07:55:18;5.03;;;3.50;;
41043;SDS011;51680;49.806;18.774;2023-03-23T07:58:40;6.75;;;3.30;;
41043;SDS011;51680;49.806;18.774;2023-03-23T08:01:42;6.03;;;3.22;;
41043;SDS011;51680;49.806;18.774;2023-03-23T08:05:04;5.57;;;3.45;;
41043;SDS011;51680;49.806;18.774;2023-03-23T08:08:44;5.95;;;3.38;;
41043;SDS011;51680;49.806;18.774;2023-03-23T08:12:07;6.53;;;3.33;;
41043;SDS011;51680;49.806;18.774;2023-03-23T08:15:27;7.43;;;3.55;;
41043;SDS011;51680;49.806;18.774;2023-03-23T08:19:05;7.10;;;3.63;;
41043;SDS011;51680;49.806;18.774;2023-03-23T08:22:22;10.93;;;3.15;;
41043;SDS011;51680;49.806;18.774;2023-03-23T08:25:49;7.05;;;3.28;;
41043;SDS011;51680;49.806;18.774;2023-03-23T08:29:06;7.47;;;3.20;;
41043;SDS011;51680;49.806;18.774;2023-03-23T08:32:27;4.50;;;2.88;;
41043;SDS011;51680;49.806;18.774;2023-03-23T08:35:43;5.38;;;3.20;;
41043;SDS011;51680;49.806;18.774;2023-03-23T08:39:05;7.43;;;3.13;;
41043;SDS011;51680;49.806;18.774;2023-03-23T08:42:22;9.73;;;4.20;;
41043;SDS011;51680;49.806;18.774;2023-03-23T08:45:51;5.65;;;3.33;;
41043;SDS011;51680;49.806;18.774;2023-03-23T08:49:12;7.97;;;4.35;;
41043;SDS011;51680;49.806;18.774;2023-03-23T08:52:26;7.30;;;3.70;;
41043;SDS011;51680;49.806;18.774;2023-03-23T08:55:50;8.50;;;3.80;;
41043;SDS011;51680;49.806;18.774;2023-03-23T08:59:18;6.57;;;3.85;;
41043;SDS011;51680;49.806;18.774;2023-03-23T09:02:30;8.32;;;4.00;;
41043;SDS011;51680;49.806;18.774;2023-03-23T09:05:47;8.63;;;4.15;;
41043;SDS011;51680;49.806;18.774;2023-03-23T09:12:15;6.60;;;3.88;;
41043;SDS011;51680;49.806;18.774;2023-03-23T09:15:17;8.18;;;3.95;;
41043;SDS011;51680;49.806;18.774;2023-03-23T09:18:20;9.80;;;4.00;;
41043;SDS011;51680;49.806;18.774;2023-03-23T09:21:22;4.38;;;2.20;;
41043;SDS011;51680;49.806;18.774;2023-03-23T09:24:23;7.95;;;3.25;;
41043;SDS011;51680;49.806;18.774;2023-03-23T09:27:27;8.18;;;3.05;;
41043;SDS011;51680;49.806;18.774;2023-03-23T09:30:30;11.03;;;3.23;;
41043;SDS011;51680;49.806;18.774;2023-03-23T09:33:33;7.72;;;3.03;;
41043;SDS011;51680;49.806;18.774;2023-03-23T09:36:36;5.80;;;2.40;;
41043;SDS011;51680;49.806;18.774;2023-03-23T09:39:39;7.68;;;3.30;;
41043;SDS011;51680;49.806;18.774;2023-03-23T09:42:46;7.55;;;3.22;;
41043;SDS011;51680;49.806;18.774;2023-03-23T09:46:00;5.72;;;3.22;;
41043;SDS011;51680;49.806;18.774;2023-03-23T09:49:13;5.60;;;3.28;;
41043;SDS011;51680;49.806;18.774;2023-03-23T09:52:19;5.43;;;3.20;;
41043;SDS011;51680;49.806;18.774;2023-03-23T09:55:20;7.50;;;3.28;;
41043;SDS011;51680;49.806;18.774;2023-03-23T09:58:25;6.05;;;3.35;;
41043;SDS011;51680;49.806;18.774;2023-03-23T10:01:33;9.10;;;3.38;;
41043;SDS011;51680;49.806;18.774;2023-03-23T10:04:39;8.10;;;3.42;;
41043;SDS011;51680;49.806;18.774;2023-03-23T10:07:45;7.82;;;3.63;;
41043;SDS011;51680;49.806;18.774;2023-03-23T10:10:50;8.18;;;3.45;;
41043;SDS011;51680;49.806;18.774;2023-03-23T10:14:09;8.02;;;3.17;;
41043;SDS011;51680;49.806;18.774;2023-03-23T10:17:19;5.18;;;3.10;;
41043;SDS011;51680;49.806;18.774;2023-03-23T10:20:28;8.30;;;3.17;;
41043;SDS011;51680;49.806;18.774;2023-03-23T10:23:38;6.88;;;3.42;;
41043;SDS011;51680;49.806;18.774;2023-03-23T10:26:48;9.50;;;3.00;;
41043;SDS011;51680;49.806;18.774;2023-03-23T10:29:57;6.50;;;3.20;;
41043;SDS011;51680;49.806;18.774;2023-03-23T10:33:03;11.75;;;3.47;;
41043;SDS011;51680;49.806;18.774;2023-03-23T10:36:13;7.75;;;3.35;;
41043;SDS011;51680;49.806;18.774;2023-03-23T10:39:20;7.63;;;3.60;;
41043;SDS011;51680;49.806;18.774;2023-03-23T10:42:24;7.38;;;3.53;;
41043;SDS011;51680;49.806;18.774;2023-03-23T10:45:29;10.00;;;3.65;;
41043;SDS011;51680;49.806;18.774;2023-03-23T10:48:35;5.50;;;3.13;;
41043;SDS011;51680;49.806;18.774;2023-03-23T10:51:40;8.15;;;3.00;;
41043;SDS011;51680;49.806;18.774;2023-03-23T10:54:46;5.72;;;3.25;;
41043;SDS011;51680;49.806;18.774;2023-03-23T10:57:59;7.35;;;3.55;;
41043;SDS011;51680;49.806;18.774;2023-03-23T11:01:04;7.97;;;3.70;;
41043;SDS011;51680;49.806;18.774;2023-03-23T11:04:10;8.70;;;3.80;;
41043;SDS011;51680;49.806;18.774;2023-03-23T11:07:17;7.65;;;3.30;;
41043;SDS011;51680;49.806;18.774;2023-03-23T11:10:23;5.95;;;3.42;;
41043;SDS011;51680;49.806;18.774;2023-03-23T11:13:28;6.60;;;3.30;;
41043;SDS011;51680;49.806;18.774;2023-03-23T11:16:34;10.25;;;4.10;;
41043;SDS011;51680;49.806;18.774;2023-03-23T11:19:36;10.15;;;3.50;;
41043;SDS011;51680;49.806;18.774;2023-03-23T11:22:40;9.30;;;3.20;;
41043;SDS011;51680;49.806;18.774;2023-03-23T11:25:57;10.05;;;3.08;;
41043;SDS011;51680;49.806;18.774;2023-03-23T11:29:03;6.28;;;2.70;;
41043;SDS011;51680;49.806;18.774;2023-03-23T11:32:10;4.72;;;2.17;;
41043;SDS011;51680;49.806;18.774;2023-03-23T11:35:16;9.20;;;3.03;;
41043;SDS011;51680;49.806;18.774;2023-03-23T11:38:21;6.93;;;2.63;;
41043;SDS011;51680;49.806;18.774;2023-03-23T11:41:31;7.05;;;2.75;;
41043;SDS011;51680;49.806;18.774;2023-03-23T11:44:34;4.07;;;2.33;;
41043;SDS011;51680;49.806;18.774;2023-03-23T11:47:45;5.07;;;2.53;;
41043;SDS011;51680;49.806;18.774;2023-03-23T11:50:57;6.97;;;2.53;;
41043;SDS011;51680;49.806;18.774;2023-03-23T11:54:04;6.88;;;2.10;;
41043;SDS011;51680;49.806;18.774;2023-03-23T11:57:13;4.63;;;2.00;;
41043;SDS011;51680;49.806;18.774;2023-03-23T12:00:17;4.50;;;1.70;;
41043;SDS011;51680;49.806;18.774;2023-03-23T12:03:23;3.67;;;1.80;;
41043;SDS011;51680;49.806;18.774;2023-03-23T12:06:34;7.55;;;1.92;;
41043;SDS011;51680;49.806;18.774;2023-03-23T12:09:43;4.32;;;1.52;;
41043;SDS011;51680;49.806;18.774;2023-03-23T12:12:57;3.95;;;1.70;;
41043;SDS011;51680;49.806;18.774;2023-03-23T12:16:07;4.40;;;2.20;;
41043;SDS011;51680;49.806;18.774;2023-03-23T12:19:24;3.65;;;1.85;;
41043;SDS011;51680;49.806;18.774;2023-03-23T12:22:37;4.80;;;1.60;;
41043;SDS011;51680;49.806;18.774;2023-03-23T12:29:18;6.05;;;1.98;;
41043;SDS011;51680;49.806;18.774;2023-03-23T12:32:46;6.03;;;2.03;;
41043;SDS011;51680;49.806;18.774;2023-03-23T12:36:02;5.82;;;2.40;;
41043;SDS011;51680;49.806;18.774;2023-03-23T12:39:40;3.95;;;2.20;;
41043;SDS011;51680;49.806;18.774;2023-03-23T12:42:53;3.40;;;2.08;;
41043;SDS011;51680;49.806;18.774;2023-03-23T12:46:02;5.57;;;2.15;;
41043;SDS011;51680;49.806;18.774;2023-03-23T12:49:13;6.90;;;1.70;;
41043;SDS011;51680;49.806;18.774;2023-03-23T12:52:22;8.68;;;2.00;;
41043;SDS011;51680;49.806;18.774;2023-03-23T12:55:30;5.57;;;2.13;;
41043;SDS011;51680;49.806;18.774;2023-03-23T12:58:38;3.38;;;1.55;;
41043;SDS011;51680;49.806;18.774;2023-03-23T13:01:45;5.57;;;1.80;;
41043;SDS011;51680;49.806;18.774;2023-03-23T13:04:52;6.18;;;1.52;;
41043;SDS011;51680;49.806;18.774;2023-03-23T13:08:04;5.10;;;1.60;;
41043;SDS011;51680;49.806;18.774;2023-03-23T13:11:14;3.85;;;1.52;;
41043;SDS011;51680;49.806;18.774;2023-03-23T13:14:41;4.68;;;1.70;;
41043;SDS011;51680;49.806;18.774;2023-03-23T13:17:51;5.18;;;1.90;;
41043;SDS011;51680;49.806;18.774;2023-03-23T13:21:01;3.60;;;1.40;;
41043;SDS011;51680;49.806;18.774;2023-03-23T13:24:10;3.38;;;1.45;;
41043;SDS011;51680;49.806;18.774;2023-03-23T13:27:15;7.00;;;1.83;;
41043;SDS011;51680;49.806;18.774;2023-03-23T13:30:18;7.95;;;2.50;;
41043;SDS011;51680;49.806;18.774;2023-03-23T13:33:24;4.68;;;1.90;;
41043;SDS011;51680;49.806;18.774;2023-03-23T13:36:28;2.97;;;1.70;;
41043;SDS011;51680;49.806;18.774;2023-03-23T13:39:35;4.80;;;1.80;;
41043;SDS011;51680;49.806;18.774;2023-03-23T13:42:47;2.90;;;1.85;;
41043;SDS011;51680;49.806;18.774;2023-03-23T13:45:51;3.22;;;1.50;;
41043;SDS011;51680;49.806;18.774;2023-03-23T13:52:23;3.03;;;1.70;;
41043;SDS011;51680;49.806;18.774;2023-03-23T13:55:40;4.55;;;1.63;;
41043;SDS011;51680;49.806;18.774;2023-03-23T13:58:44;10.82;;;1.85;;
41043;SDS011;51680;49.806;18.774;2023-03-23T14:01:47;4.93;;;1.70;;
41043;SDS011;51680;49.806;18.774;2023-03-23T14:04:49;2.58;;;1.30;;
41043;SDS011;51680;49.806;18.774;2023-03-23T14:07:52;4.38;;;1.73;;
41043;SDS011;51680;49.806;18.774;2023-03-23T14:10:57;3.60;;;2.20;;
41043;SDS011;51680;49.806;18.774;2023-03-23T14:14:03;8.48;;;2.08;;
41043;SDS011;51680;49.806;18.774;2023-03-23T14:20:19;5.80;;;1.92;;
41043;SDS011;51680;49.806;18.774;2023-03-23T14:23:26;5.65;;;1.85;;
41043;SDS011;51680;49.806;18.774;2023-03-23T14:26:29;5.38;;;1.92;;
41043;SDS011;51680;49.806;18.774;2023-03-23T14:29:35;3.67;;;1.88;;
41043;SDS011;51680;49.806;18.774;2023-03-23T14:32:37;5.57;;;1.85;;
41043;SDS011;51680;49.806;18.774;2023-03-23T14:35:41;3.72;;;1.90;;
41043;SDS011;51680;49.806;18.774;2023-03-23T14:38:46;2.97;;;1.38;;
41043;SDS011;51680;49.806;18.774;2023-03-23T14:41:49;3.40;;;1.58;;
41043;SDS011;51680;49.806;18.774;2023-03-23T14:44:53;5.20;;;1.80;;
41043;SDS011;51680;49.806;18.774;2023-03-23T14:47:56;5.43;;;1.70;;
41043;SDS011;51680;49.806;18.774;2023-03-23T14:51:00;5.43;;;2.00;;
41043;SDS011;51680;49.806;18.774;2023-03-23T14:54:07;4.53;;;2.22;;
41043;SDS011;51680;49.806;18.774;2023-03-23T14:57:12;8.55;;;2.50;;
41043;SDS011;51680;49.806;18.774;2023-03-23T15:00:16;6.22;;;2.53;;
41043;SDS011;51680;49.806;18.774;2023-03-23T15:03:20;6.25;;;2.05;;
41043;SDS011;51680;49.806;18.774;2023-03-23T15:06:24;5.50;;;2.00;;
41043;SDS011;51680;49.806;18.774;2023-03-23T15:09:28;3.35;;;1.80;;
41043;SDS011;51680;49.806;18.774;2023-03-23T15:12:33;4.32;;;2.05;;
41043;SDS011;51680;49.806;18.774;2023-03-23T15:15:36;6.63;;;2.20;;
41043;SDS011;51680;49.806;18.774;2023-03-23T15:18:38;7.22;;;3.80;;
41043;SDS011;51680;49.806;18.774;2023-03-23T15:21:46;7.35;;;4.05;;
41043;SDS011;51680;49.806;18.774;2023-03-23T15:24:49;8.93;;;4.90;;
41043;SDS011;51680;49.806;18.774;2023-03-23T15:30:57;15.20;;;4.83;;
41043;SDS011;51680;49.806;18.774;2023-03-23T15:34:03;8.70;;;4.47;;
41043;SDS011;51680;49.806;18.774;2023-03-23T15:37:16;13.43;;;5.32;;
41043;SDS011;51680;49.806;18.774;2023-03-23T15:40:22;8.13;;;4.90;;
41043;SDS011;51680;49.806;18.774;2023-03-23T15:43:27;11.10;;;5.32;;
41043;SDS011;51680;49.806;18.774;2023-03-23T15:46:31;9.75;;;6.13;;
41043;SDS011;51680;49.806;18.774;2023-03-23T15:49:33;12.73;;;5.85;;
41043;SDS011;51680;49.806;18.774;2023-03-23T15:52:36;8.13;;;4.43;;
41043;SDS011;51680;49.806;18.774;2023-03-23T15:55:38;11.20;;;4.95;;
41043;SDS011;51680;49.806;18.774;2023-03-23T15:58:41;12.70;;;5.60;;
41043;SDS011;51680;49.806;18.774;2023-03-23T16:01:43;7.60;;;4.70;;
41043;SDS011;51680;49.806;18.774;2023-03-23T16:04:45;7.15;;;4.00;;
41043;SDS011;51680;49.806;18.774;2023-03-23T16:07:46;11.70;;;4.85;;
41043;SDS011;51680;49.806;18.774;2023-03-23T16:10:48;9.48;;;4.93;;
41043;SDS011;51680;49.806;18.774;2023-03-23T16:13:52;8.55;;;4.88;;
41043;SDS011;51680;49.806;18.774;2023-03-23T16:16:54;10.75;;;4.88;;
41043;SDS011;51680;49.806;18.774;2023-03-23T16:19:56;11.23;;;5.00;;
41043;SDS011;51680;49.806;18.774;2023-03-23T16:22:57;9.57;;;4.80;;
41043;SDS011;51680;49.806;18.774;2023-03-23T16:26:00;8.93;;;4.72;;
41043;SDS011;51680;49.806;18.774;2023-03-23T16:29:07;10.27;;;4.75;;
41043;SDS011;51680;49.806;18.774;2023-03-23T16:32:11;10.77;;;4.47;;
41043;SDS011;51680;49.806;18.774;2023-03-23T16:35:13;9.20;;;4.30;;
41043;SDS011;51680;49.806;18.774;2023-03-23T16:38:15;12.80;;;7.75;;
41043;SDS011;51680;49.806;18.774;2023-03-23T16:41:17;10.02;;;4.45;;
41043;SDS011;51680;49.806;18.774;2023-03-23T16:44:20;8.95;;;5.10;;
41043;SDS011;51680;49.806;18.774;2023-03-23T16:47:22;9.70;;;5.33;;
41043;SDS011;51680;49.806;18.774;2023-03-23T16:50:24;10.38;;;5.30;;
41043;SDS011;51680;49.806;18.774;2023-03-23T16:53:26;8.57;;;5.60;;
41043;SDS011;51680;49.806;18.774;2023-03-23T16:56:28;14.57;;;7.65;;
41043;SDS011;51680;49.806;18.774;2023-03-23T16:59:31;12.68;;;7.20;;
41043;SDS011;51680;49.806;18.774;2023-03-23T17:02:33;10.03;;;6.10;;
41043;SDS011;51680;49.806;18.774;2023-03-23T17:05:35;16.33;;;6.53;;
41043;SDS011;51680;49.806;18.774;2023-03-23T17:08:37;13.65;;;5.85;;
41043;SDS011;51680;49.806;18.774;2023-03-23T17:11:39;12.70;;;5.13;;
41043;SDS011;51680;49.806;18.774;2023-03-23T17:14:42;12.73;;;7.20;;
41043;SDS011;51680;49.806;18.774;2023-03-23T17:17:44;15.07;;;5.97;;
41043;SDS011;51680;49.806;18.774;2023-03-23T17:20:46;13.02;;;8.98;;
41043;SDS011;51680;49.806;18.774;2023-03-23T17:23:48;13.88;;;7.00;;
41043;SDS011;51680;49.806;18.774;2023-03-23T17:26:50;11.50;;;5.60;;
41043;SDS011;51680;49.806;18.774;2023-03-23T17:29:53;12.90;;;6.50;;
41043;SDS011;51680;49.806;18.774;2023-03-23T17:32:55;11.75;;;5.95;;
41043;SDS011;51680;49.806;18.774;2023-03-23T17:35:57;17.23;;;8.93;;
41043;SDS011;51680;49.806;18.774;2023-03-23T17:38:59;18.40;;;10.95;;
41043;SDS011;51680;49.806;18.774;2023-03-23T17:42:01;21.95;;;10.70;;
41043;SDS011;51680;49.806;18.774;2023-03-23T17:45:06;14.10;;;7.60;;
41043;SDS011;51680;49.806;18.774;2023-03-23T17:48:08;18.20;;;12.13;;
41043;SDS011;51680;49.806;18.774;2023-03-23T17:51:10;13.85;;;8.82;;
41043;SDS011;51680;49.806;18.774;2023-03-23T17:54:12;31.60;;;22.25;;
41043;SDS011;51680;49.806;18.774;2023-03-23T17:57:14;18.70;;;10.27;;
41043;SDS011;51680;49.806;18.774;2023-03-23T18:00:18;20.02;;;11.40;;
41043;SDS011;51680;49.806;18.774;2023-03-23T18:03:21;15.85;;;8.77;;
41043;SDS011;51680;49.806;18.774;2023-03-23T18:06:23;14.85;;;8.52;;
41043;SDS011;51680;49.806;18.774;2023-03-23T18:09:25;18.27;;;8.57;;
41043;SDS011;51680;49.806;18.774;2023-03-23T18:12:27;19.48;;;9.10;;
41043;SDS011;51680;49.806;18.774;2023-03-23T18:15:30;19.38;;;8.73;;
41043;SDS011;51680;49.806;18.774;2023-03-23T18:18:32;15.10;;;8.38;;
41043;SDS011;51680;49.806;18.774;2023-03-23T18:21:34;18.42;;;8.20;;
41043;SDS011;51680;49.806;18.774;2023-03-23T18:24:36;15.05;;;7.05;;
41043;SDS011;51680;49.806;18.774;2023-03-23T18:27:38;21.60;;;8.70;;
41043;SDS011;51680;49.806;18.774;2023-03-23T18:30:41;13.07;;;7.00;;
41043;SDS011;51680;49.806;18.774;2023-03-23T18:33:48;15.43;;;7.28;;
41043;SDS011;51680;49.806;18.774;2023-03-23T18:36:53;11.38;;;6.60;;
41043;SDS011;51680;49.806;18.774;2023-03-23T18:39:54;12.02;;;6.18;;
41043;SDS011;51680;49.806;18.774;2023-03-23T18:42:56;13.57;;;6.07;;
41043;SDS011;51680;49.806;18.774;2023-03-23T18:46:01;12.33;;;5.97;;
41043;SDS011;51680;49.806;18.774;2023-03-23T18:49:03;16.08;;;6.82;;
41043;SDS011;51680;49.806;18.774;2023-03-23T18:52:24;12.55;;;6.78;;
41043;SDS011;51680;49.806;18.774;2023-03-23T18:55:29;16.33;;;7.65;;
41043;SDS011;51680;49.806;18.774;2023-03-23T18:58:31;11.50;;;6.88;;
41043;SDS011;51680;49.806;18.774;2023-03-23T19:01:34;13.98;;;7.18;;